createdAt,value
2022-10-18T00:00:07.530Z,63.27
2022-10-18T00:02:34.056Z,41.63
2022-10-18T00:05:00.732Z,37.93
2022-10-18T00:07:27.284Z,25.50
2022-10-18T00:09:53.692Z,32.73
2022-10-18T00:12:20.090Z,62.93
2022-10-18T00:14:50.481Z,92.20
2022-10-18T00:17:16.971Z,29.27
2022-10-18T00:19:43.465Z,48.87
2022-10-18T00:22:09.882Z,65.07
2022-10-18T00:24:36.242Z,50.03
2022-10-18T00:27:02.648Z,40.97
2022-10-18T00:29:29.018Z,80.83
2022-10-18T00:31:55.416Z,44.20
2022-10-18T00:34:21.792Z,59.67
2022-10-18T00:36:48.315Z,45.83
2022-10-18T00:39:17.830Z,15.67
2022-10-18T00:41:44.757Z,14.93
2022-10-18T00:44:11.065Z,20.00
2022-10-18T00:46:45.305Z,34.00
2022-10-18T00:49:16.221Z,30.03
2022-10-18T00:51:46.744Z,24.40
2022-10-18T00:54:15.048Z,24.00
2022-10-18T00:56:44.672Z,15.07
2022-10-18T00:59:13.816Z,30.03
2022-10-18T01:01:40.298Z,13.20
2022-10-18T01:04:06.667Z,13.37
2022-10-18T01:06:41.699Z,17.77
2022-10-18T01:09:26.990Z,11.87
2022-10-18T01:12:28.895Z,10.63
2022-10-18T01:15:13.316Z,19.07
2022-10-18T01:17:49.209Z,22.00
2022-10-18T01:20:53.638Z,12.70
2022-10-18T01:23:32.108Z,14.73
2022-10-18T01:26:32.243Z,16.50
2022-10-18T01:29:25.481Z,22.83
2022-10-18T01:31:59.619Z,14.33
2022-10-18T01:34:30.442Z,13.97
2022-10-18T01:36:58.650Z,16.73
2022-10-18T01:39:29.705Z,15.20
2022-10-18T01:41:59.548Z,12.00
2022-10-18T01:44:29.352Z,14.47
2022-10-18T01:46:57.887Z,12.80
2022-10-18T01:49:25.124Z,12.93
2022-10-18T01:51:51.644Z,13.60
2022-10-18T01:54:26.585Z,21.90
2022-10-18T01:57:06.503Z,13.10
2022-10-18T02:00:01.831Z,12.03
2022-10-18T02:02:49.145Z,14.77
2022-10-18T02:05:25.029Z,20.50
2022-10-18T02:08:22.897Z,13.50
2022-10-18T02:10:55.716Z,28.53
2022-10-18T02:13:25.720Z,18.97
2022-10-18T02:15:58.612Z,39.80
2022-10-18T02:18:32.362Z,26.63
2022-10-18T02:21:01.762Z,25.37
2022-10-18T02:23:28.264Z,26.60
2022-10-18T02:25:55.203Z,30.80
2022-10-18T02:28:22.041Z,15.63
2022-10-18T02:30:58.662Z,29.20
2022-10-18T02:33:37.377Z,19.00
2022-10-18T02:36:10.411Z,11.17
2022-10-18T02:38:38.507Z,19.30
2022-10-18T02:41:05.030Z,17.10
2022-10-18T02:43:31.593Z,15.27
2022-10-18T02:45:58.009Z,12.43
2022-10-18T02:48:24.438Z,10.23
2022-10-18T02:50:50.792Z,10.70
2022-10-18T02:53:17.190Z,13.73
2022-10-18T02:55:43.637Z,15.33
2022-10-18T02:58:10.030Z,10.53
2022-10-18T03:00:36.438Z,11.37
2022-10-18T03:03:02.870Z,9.33
2022-10-18T03:05:29.264Z,16.50
2022-10-18T03:07:58.740Z,11.77
2022-10-18T03:10:25.124Z,11.17
2022-10-18T03:12:51.482Z,13.07
2022-10-18T03:15:17.844Z,10.23
2022-10-18T03:17:44.186Z,11.30
2022-10-18T03:20:11.021Z,10.40
2022-10-18T03:22:37.378Z,11.93
2022-10-18T03:25:03.931Z,11.43
2022-10-18T03:27:30.627Z,11.47
2022-10-18T03:29:57.235Z,13.47
2022-10-18T03:32:23.623Z,12.33
2022-10-18T03:34:49.959Z,11.13
2022-10-18T03:37:16.326Z,12.83
2022-10-18T03:39:42.719Z,13.20
2022-10-18T03:42:09.092Z,14.73
2022-10-18T03:44:35.434Z,11.10
2022-10-18T03:47:01.830Z,14.33
2022-10-18T03:49:28.239Z,12.80
2022-10-18T03:51:54.663Z,12.30
2022-10-18T03:54:21.099Z,15.17
2022-10-18T03:56:47.428Z,12.97
2022-10-18T03:59:13.870Z,15.33
2022-10-18T04:01:40.289Z,15.83
2022-10-18T04:04:06.694Z,17.17
2022-10-18T04:06:33.053Z,13.70
2022-10-18T04:08:59.418Z,12.07
2022-10-18T04:11:25.773Z,14.20
2022-10-18T04:13:52.213Z,15.40
2022-10-18T04:16:18.563Z,13.20
2022-10-18T04:18:44.953Z,14.20
2022-10-18T04:21:11.297Z,14.23
2022-10-18T04:23:38.880Z,12.30
2022-10-18T04:26:05.689Z,14.60
2022-10-18T04:28:33.420Z,14.03
2022-10-18T04:30:59.926Z,12.47
2022-10-18T04:33:26.368Z,10.67
2022-10-18T04:35:53.480Z,12.87
2022-10-18T04:38:20.080Z,10.77
2022-10-18T04:40:46.790Z,12.30
2022-10-18T04:43:13.160Z,11.10
2022-10-18T04:45:39.617Z,12.67
2022-10-18T04:48:06.673Z,11.73
2022-10-18T04:50:33.120Z,12.47
2022-10-18T04:52:59.501Z,8.57
2022-10-18T04:55:25.974Z,9.90
2022-10-18T04:57:53.017Z,11.90
2022-10-18T05:00:19.496Z,12.67
2022-10-18T05:02:45.885Z,11.27
2022-10-18T05:05:14.062Z,14.10
2022-10-18T05:07:40.846Z,9.90
2022-10-18T05:10:07.990Z,13.67
2022-10-18T05:12:34.754Z,14.20
2022-10-18T05:15:01.292Z,13.57
2022-10-18T05:17:27.674Z,12.37
2022-10-18T05:19:54.037Z,12.13
2022-10-18T05:22:20.420Z,11.43
2022-10-18T05:24:46.860Z,34.90
2022-10-18T05:27:13.219Z,18.23
2022-10-18T05:29:39.647Z,21.27
2022-10-18T05:32:06.058Z,19.53
2022-10-18T05:34:33.006Z,10.63
2022-10-18T05:36:59.908Z,7.27
2022-10-18T05:39:26.361Z,12.60
2022-10-18T05:41:52.705Z,13.83
2022-10-18T05:44:19.193Z,8.77
2022-10-18T05:46:45.557Z,7.90
2022-10-18T05:49:13.255Z,8.87
2022-10-18T05:51:39.597Z,10.83
2022-10-18T05:54:06.144Z,9.27
2022-10-18T05:56:32.966Z,7.87
2022-10-18T05:58:59.322Z,9.73
2022-10-18T06:01:25.701Z,9.50
2022-10-18T06:03:52.152Z,8.53
2022-10-18T06:06:18.603Z,7.90
2022-10-18T06:08:45.005Z,11.53
2022-10-18T06:11:14.595Z,10.00
2022-10-18T06:13:46.152Z,12.00
2022-10-18T06:16:13.829Z,13.87
2022-10-18T06:18:40.912Z,12.47
2022-10-18T06:21:08.193Z,11.83
2022-10-18T06:23:34.867Z,10.47
2022-10-18T06:26:02.892Z,16.67
2022-10-18T06:28:30.052Z,7.47
2022-10-18T06:30:57.802Z,7.07
2022-10-18T06:33:24.597Z,9.13
2022-10-18T06:36:02.921Z,9.20
2022-10-18T06:38:30.475Z,11.60
2022-10-18T06:40:58.236Z,11.83
2022-10-18T06:43:25.398Z,8.57
2022-10-18T06:45:52.715Z,8.97
2022-10-18T06:50:56.964Z,7.20
2022-10-18T06:53:25.003Z,9.40
2022-10-18T06:55:51.535Z,7.67
2022-10-18T06:58:18.411Z,7.10
2022-10-18T07:00:45.985Z,5.87
2022-10-18T07:03:12.401Z,4.57
2022-10-18T07:05:38.902Z,8.93
2022-10-18T07:08:05.298Z,6.20
2022-10-18T07:10:31.649Z,4.57
2022-10-18T07:13:13.662Z,5.80
2022-10-18T07:15:44.413Z,7.47
2022-10-18T07:18:11.059Z,6.23
2022-10-18T07:20:37.436Z,6.80
2022-10-18T07:23:05.553Z,7.93
2022-10-18T07:25:31.907Z,13.33
2022-10-18T07:28:01.248Z,7.17
2022-10-18T07:30:27.620Z,6.87
2022-10-18T07:32:54.133Z,6.20
2022-10-18T07:35:20.504Z,5.93
2022-10-18T07:37:46.907Z,5.33
2022-10-18T07:40:13.295Z,8.77
2022-10-18T07:42:39.697Z,5.80
2022-10-18T07:45:06.934Z,5.97
2022-10-18T07:47:35.216Z,6.20
2022-10-18T07:50:01.915Z,9.57
2022-10-18T07:52:28.297Z,6.20
2022-10-18T07:54:54.681Z,9.67
2022-10-18T07:57:21.051Z,11.50
2022-10-18T07:59:48.305Z,6.70
2022-10-18T08:02:14.667Z,11.33
2022-10-18T08:04:41.578Z,7.40
2022-10-18T08:07:07.939Z,9.93
2022-10-18T08:09:34.298Z,6.90
2022-10-18T08:12:00.729Z,8.60
2022-10-18T08:14:27.093Z,8.17
2022-10-18T08:16:53.485Z,14.80
2022-10-18T08:19:19.868Z,7.27
2022-10-18T08:21:46.191Z,8.03
2022-10-18T08:24:12.527Z,9.30
2022-10-18T08:26:38.897Z,8.53
2022-10-18T08:29:23.012Z,7.97
2022-10-18T08:31:51.355Z,8.33
2022-10-18T08:34:19.809Z,7.73
2022-10-18T08:36:46.459Z,6.10
2022-10-18T08:39:12.790Z,8.03
2022-10-18T08:41:57.586Z,7.70
2022-10-18T08:44:46.957Z,7.53
2022-10-18T08:47:18.690Z,8.83
2022-10-18T08:49:50.396Z,10.67
2022-10-18T08:52:35.586Z,10.53
2022-10-18T08:55:11.988Z,6.90
2022-10-18T08:57:38.377Z,8.87
2022-10-18T09:00:15.579Z,11.90
2022-10-18T09:02:58.207Z,10.63
2022-10-18T09:05:54.633Z,11.60
2022-10-18T09:08:20.920Z,9.97
2022-10-18T09:11:05.978Z,12.27
2022-10-18T09:14:17.811Z,9.83
2022-10-18T09:17:05.704Z,7.20
2022-10-18T09:19:43.662Z,9.23
2022-10-18T09:22:18.128Z,8.63
2022-10-18T09:25:06.268Z,7.70
2022-10-18T09:27:56.710Z,7.27
2022-10-18T09:30:32.925Z,10.40
2022-10-18T09:33:14.415Z,10.77
2022-10-18T09:35:52.238Z,7.50
2022-10-18T09:40:56.449Z,8.10
2022-10-18T09:43:30.320Z,8.03
2022-10-18T09:45:57.481Z,7.00
2022-10-18T09:48:29.226Z,7.60
2022-10-18T09:51:05.385Z,6.53
2022-10-18T09:53:56.680Z,10.97
2022-10-18T09:56:44.802Z,7.20
2022-10-18T09:59:29.800Z,6.90
2022-10-18T10:01:56.563Z,4.20
2022-10-18T10:04:23.020Z,7.13
2022-10-18T10:06:51.042Z,8.07
2022-10-18T10:09:21.466Z,9.43
2022-10-18T10:11:49.842Z,7.20
2022-10-18T10:14:25.501Z,9.80
2022-10-18T10:16:54.717Z,6.73
2022-10-18T10:19:34.655Z,4.97
2022-10-18T10:22:08.287Z,8.17
2022-10-18T10:24:46.856Z,4.97
2022-10-18T10:27:35.113Z,5.33
2022-10-18T10:30:07.071Z,4.47
2022-10-18T10:32:48.259Z,6.27
2022-10-18T10:35:53.924Z,8.13
2022-10-18T10:38:28.745Z,8.17
2022-10-18T10:40:56.000Z,6.00
2022-10-18T10:43:37.535Z,5.43
2022-10-18T10:46:11.690Z,3.13
2022-10-18T10:49:21.653Z,2.97
2022-10-18T10:51:50.596Z,4.17
2022-10-18T10:54:26.497Z,4.53
2022-10-18T10:57:01.080Z,5.17
2022-10-18T10:59:32.095Z,4.37
2022-10-18T11:02:20.579Z,4.33
2022-10-18T11:04:55.042Z,3.30
2022-10-18T11:07:36.823Z,4.80
2022-10-18T11:10:12.458Z,5.27
2022-10-18T11:12:45.065Z,8.77
2022-10-18T11:15:14.435Z,6.07
2022-10-18T11:17:56.102Z,7.20
2022-10-18T11:20:29.529Z,3.37
2022-10-18T11:22:55.814Z,3.90
2022-10-18T11:25:25.524Z,4.73
2022-10-18T11:28:04.327Z,2.87
2022-10-18T11:30:36.857Z,2.53
2022-10-18T11:33:14.239Z,6.43
2022-10-18T11:36:04.617Z,3.03
2022-10-18T11:38:53.793Z,3.27
2022-10-18T11:41:38.287Z,3.13
2022-10-18T11:44:19.203Z,4.00
2022-10-18T11:46:57.676Z,4.97
2022-10-18T11:49:32.983Z,3.20
2022-10-18T11:52:13.673Z,3.03
2022-10-18T11:55:04.648Z,4.10
2022-10-18T11:57:53.010Z,3.23
2022-10-18T12:00:46.176Z,5.17
2022-10-18T12:03:20.290Z,2.97
2022-10-18T12:05:49.801Z,2.40
2022-10-18T12:08:21.378Z,4.33
2022-10-18T12:11:04.701Z,2.83
2022-10-18T12:14:07.006Z,3.77
2022-10-18T12:16:52.250Z,2.70
2022-10-18T12:19:26.942Z,4.97
2022-10-18T12:21:57.534Z,4.53
2022-10-18T12:24:28.504Z,3.97
2022-10-18T12:26:59.502Z,4.83
2022-10-18T12:29:46.682Z,2.37
2022-10-18T12:32:20.479Z,6.03
2022-10-18T12:34:51.866Z,4.57
2022-10-18T12:37:36.816Z,4.33
2022-10-18T12:40:21.902Z,4.40
2022-10-18T12:42:51.271Z,2.87
2022-10-18T12:45:32.219Z,3.37
2022-10-18T12:48:30.737Z,3.33
2022-10-18T12:51:04.210Z,3.33
2022-10-18T12:53:32.007Z,4.47
2022-10-18T12:56:29.557Z,3.90
2022-10-18T12:59:14.497Z,3.30
2022-10-18T13:01:50.469Z,2.57
2022-10-18T13:04:29.468Z,2.83
2022-10-18T13:06:59.481Z,7.83
2022-10-18T13:09:30.360Z,1.67
2022-10-18T13:12:08.898Z,2.60
2022-10-18T13:15:12.462Z,2.80
2022-10-18T13:17:58.538Z,6.90
2022-10-18T13:21:12.084Z,4.10
2022-10-18T13:23:42.419Z,3.60
2022-10-18T13:26:24.278Z,4.17
2022-10-18T13:29:05.572Z,5.73
2022-10-18T13:31:47.292Z,3.30
2022-10-18T13:34:27.636Z,3.47
2022-10-18T13:37:09.014Z,3.50
2022-10-18T13:39:36.986Z,3.07
2022-10-18T13:42:03.325Z,2.33
2022-10-18T13:44:33.239Z,5.33
2022-10-18T13:46:59.528Z,6.27
2022-10-18T13:50:00.610Z,3.77
2022-10-18T13:52:49.664Z,4.03
2022-10-18T13:55:55.860Z,4.13
2022-10-18T13:59:13.164Z,6.03
2022-10-18T14:01:58.781Z,3.43
2022-10-18T14:04:47.546Z,6.07
2022-10-18T14:07:19.141Z,8.73
2022-10-18T14:09:56.174Z,3.43
2022-10-18T14:12:47.585Z,1.97
2022-10-18T14:15:49.151Z,3.90
2022-10-18T14:18:22.715Z,4.33
2022-10-18T14:21:12.342Z,2.43
2022-10-18T14:23:45.037Z,4.23
2022-10-18T14:26:15.096Z,5.30
2022-10-18T14:28:59.040Z,3.47
2022-10-18T14:31:27.233Z,1.30
2022-10-18T14:33:58.368Z,2.37
2022-10-18T14:36:29.369Z,1.33
2022-10-18T14:39:01.201Z,0.80
2022-10-18T14:41:47.307Z,2.00
2022-10-18T14:44:16.731Z,1.83
2022-10-18T14:46:49.451Z,3.33
2022-10-18T14:49:17.294Z,2.93
2022-10-18T14:51:46.692Z,4.97
2022-10-18T14:54:19.578Z,1.10
2022-10-18T14:56:46.411Z,1.87
2022-10-18T14:59:18.903Z,7.47
2022-10-18T15:02:01.255Z,2.73
2022-10-18T15:04:34.922Z,2.47
2022-10-18T15:07:07.164Z,1.67
2022-10-18T15:09:35.805Z,2.00
2022-10-18T15:12:05.536Z,1.30
2022-10-18T15:14:32.298Z,2.27
2022-10-18T15:17:02.676Z,3.77
2022-10-18T15:19:35.603Z,3.17
2022-10-18T15:25:32.115Z,3.47
2022-10-18T15:28:00.602Z,3.40
2022-10-18T15:30:36.149Z,2.77
2022-10-18T15:33:05.084Z,4.70
2022-10-18T15:35:33.790Z,2.90
2022-10-18T15:38:13.099Z,2.67
2022-10-18T15:40:40.779Z,6.50
2022-10-18T15:43:25.867Z,7.43
2022-10-18T15:45:53.349Z,3.53
2022-10-18T15:48:36.462Z,4.17
2022-10-18T15:51:05.115Z,4.23
2022-10-18T15:53:50.301Z,3.40
2022-10-18T15:56:38.011Z,4.13
2022-10-18T15:59:20.474Z,1.20
2022-10-18T16:01:46.999Z,2.90
2022-10-18T16:04:27.184Z,7.63
2022-10-18T16:06:56.048Z,4.97
2022-10-18T16:09:25.116Z,5.17
2022-10-18T16:11:55.815Z,3.77
2022-10-18T16:14:23.316Z,6.80
2022-10-18T16:16:54.157Z,5.27
2022-10-18T16:19:23.930Z,7.00
2022-10-18T16:21:51.901Z,4.80
2022-10-18T16:24:18.683Z,6.03
2022-10-18T16:26:45.538Z,4.13
2022-10-18T16:29:28.475Z,4.37
2022-10-18T16:31:58.003Z,5.77
2022-10-18T16:34:28.020Z,3.27
2022-10-18T16:36:55.229Z,3.77
2022-10-18T16:39:22.311Z,7.17
2022-10-18T16:41:48.718Z,3.43
2022-10-18T16:44:16.478Z,2.70
2022-10-18T16:46:42.853Z,2.80
2022-10-18T16:51:46.345Z,2.63
2022-10-18T16:54:12.809Z,9.30
2022-10-18T16:56:39.571Z,8.90
2022-10-18T16:59:06.012Z,6.23
2022-10-18T17:01:32.468Z,4.77
2022-10-18T17:03:58.901Z,5.80
2022-10-18T17:06:29.318Z,5.57
2022-10-18T17:08:56.772Z,2.90
2022-10-18T17:11:26.367Z,1.87
2022-10-18T17:13:53.110Z,6.83
2022-10-18T17:19:04.798Z,5.33
2022-10-18T17:21:33.533Z,5.40
2022-10-18T17:24:02.948Z,4.00
2022-10-18T17:26:30.166Z,8.90
2022-10-18T17:29:03.047Z,5.27
2022-10-18T17:31:30.559Z,3.43
2022-10-18T17:33:58.760Z,7.20
2022-10-18T17:36:25.773Z,5.40
2022-10-18T17:38:55.721Z,7.83
2022-10-18T17:41:22.330Z,2.80
2022-10-18T17:43:49.390Z,5.33
2022-10-18T17:46:17.684Z,8.13
2022-10-18T17:48:44.413Z,4.97
2022-10-18T17:51:14.005Z,7.50
2022-10-18T17:53:40.502Z,5.27
2022-10-18T17:56:07.802Z,8.87
2022-10-18T17:58:34.760Z,8.30
2022-10-18T18:01:12.905Z,5.27
2022-10-18T18:03:40.531Z,3.83
2022-10-18T18:06:31.278Z,10.37
2022-10-18T18:08:59.812Z,5.13
2022-10-18T18:11:27.272Z,3.53
2022-10-18T18:13:57.531Z,4.70
2022-10-18T18:16:26.876Z,5.13
2022-10-18T18:18:56.281Z,4.40
2022-10-18T18:21:23.275Z,6.47
2022-10-18T18:23:50.520Z,5.90
2022-10-18T18:26:19.087Z,8.23
2022-10-18T18:28:45.658Z,6.60
2022-10-18T18:31:18.351Z,2.67
2022-10-18T18:33:45.114Z,4.90
2022-10-18T18:36:12.589Z,6.97
2022-10-18T18:38:42.556Z,9.40
2022-10-18T18:41:17.937Z,6.07
2022-10-18T18:43:55.230Z,3.63
2022-10-18T18:46:22.726Z,4.33
2022-10-18T18:48:49.751Z,3.63
2022-10-18T18:51:19.026Z,7.20
2022-10-18T18:53:47.039Z,5.87
2022-10-18T18:56:16.290Z,7.40
2022-10-18T18:58:44.130Z,4.80
2022-10-18T19:01:13.686Z,4.20
2022-10-18T19:03:41.559Z,5.23
2022-10-18T19:06:11.596Z,7.23
2022-10-18T19:08:39.980Z,7.50
2022-10-18T19:11:09.205Z,6.27
2022-10-18T19:13:36.022Z,6.63
2022-10-18T19:16:17.681Z,4.17
2022-10-18T19:18:49.127Z,8.03
2022-10-18T19:21:15.526Z,5.80
2022-10-18T19:23:41.895Z,8.57
2022-10-18T19:26:22.805Z,7.50
2022-10-18T19:28:49.193Z,5.87
2022-10-18T19:31:15.554Z,7.73
2022-10-18T19:33:55.593Z,9.20
2022-10-18T19:36:25.236Z,6.50
2022-10-18T19:38:51.647Z,6.20
2022-10-18T19:41:18.078Z,9.57
2022-10-18T19:43:44.467Z,12.50
2022-10-18T19:46:11.476Z,7.30
2022-10-18T19:48:37.892Z,10.93
2022-10-18T19:51:07.083Z,4.63
2022-10-18T19:53:35.714Z,7.83
2022-10-18T19:56:04.283Z,7.70
2022-10-18T19:58:30.716Z,12.47
2022-10-18T20:00:57.800Z,7.77
2022-10-18T20:03:24.778Z,9.63
2022-10-18T20:05:56.429Z,7.40
2022-10-18T20:08:24.140Z,10.00
2022-10-18T20:10:51.177Z,8.17
2022-10-18T20:13:18.286Z,9.30
2022-10-18T20:15:47.788Z,9.93
2022-10-18T20:18:15.227Z,9.27
2022-10-18T20:20:44.577Z,8.53
2022-10-18T20:23:14.699Z,7.67
2022-10-18T20:25:41.073Z,6.80
2022-10-18T20:28:07.504Z,5.83
2022-10-18T20:30:34.094Z,7.83
2022-10-18T20:33:00.481Z,9.20
2022-10-18T20:35:26.851Z,6.33
2022-10-18T20:37:53.196Z,8.47
2022-10-18T20:40:19.626Z,6.83
2022-10-18T20:42:46.006Z,11.70
2022-10-18T20:45:12.405Z,10.30
2022-10-18T20:47:38.827Z,6.20
2022-10-18T20:50:05.580Z,11.13
2022-10-18T20:52:31.950Z,8.60
2022-10-18T20:54:58.274Z,8.47
2022-10-18T20:57:24.633Z,9.97
2022-10-18T20:59:50.971Z,10.20
2022-10-18T21:02:17.386Z,7.43
2022-10-18T21:04:43.776Z,9.50
2022-10-18T21:07:10.116Z,8.17
2022-10-18T21:09:36.463Z,6.57
2022-10-18T21:12:02.922Z,9.77
2022-10-18T21:14:29.358Z,8.17
2022-10-18T21:16:55.742Z,7.30
2022-10-18T21:19:26.513Z,10.80
2022-10-18T21:21:55.718Z,11.50
2022-10-18T21:24:24.083Z,8.23
2022-10-18T21:26:50.522Z,7.20
2022-10-18T21:29:21.864Z,7.70
2022-10-18T21:31:49.154Z,6.90
2022-10-18T21:34:17.380Z,7.80
2022-10-18T21:36:45.768Z,7.73
2022-10-18T21:39:14.871Z,10.90
2022-10-18T21:41:42.182Z,6.77
2022-10-18T21:44:10.706Z,7.43
2022-10-18T21:46:39.162Z,5.93
2022-10-18T21:49:06.234Z,12.07
2022-10-18T21:51:32.593Z,9.07
2022-10-18T21:53:59.152Z,5.27
2022-10-18T21:56:31.294Z,7.73
2022-10-18T21:58:57.934Z,8.70
2022-10-18T22:01:32.143Z,6.93
2022-10-18T22:04:00.003Z,5.63
2022-10-18T22:06:29.548Z,8.43
2022-10-18T22:08:58.270Z,9.03
2022-10-18T22:11:36.738Z,10.00
2022-10-18T22:14:03.184Z,6.17
2022-10-18T22:16:29.595Z,8.43
2022-10-18T22:19:01.422Z,8.40
2022-10-18T22:21:28.868Z,6.93
2022-10-18T22:23:59.741Z,7.43
2022-10-18T22:26:29.055Z,9.73
2022-10-18T22:29:05.025Z,7.13
2022-10-18T22:31:34.173Z,8.27
2022-10-18T22:34:07.203Z,9.23
2022-10-18T22:36:34.549Z,7.63
2022-10-18T22:39:01.679Z,10.67
2022-10-18T22:41:28.321Z,8.20
2022-10-18T22:43:56.390Z,9.07
2022-10-18T22:46:25.969Z,6.07
2022-10-18T22:48:52.815Z,5.47
2022-10-18T22:51:19.275Z,7.67
2022-10-18T22:53:46.144Z,9.67
2022-10-18T22:56:15.984Z,7.47
2022-10-18T22:58:42.511Z,5.80
2022-10-18T23:01:15.377Z,11.10
2022-10-18T23:03:42.300Z,7.70
2022-10-18T23:06:26.643Z,9.00
2022-10-18T23:08:54.607Z,5.83
2022-10-18T23:11:21.481Z,6.77
2022-10-18T23:13:48.225Z,6.57
2022-10-18T23:16:14.700Z,8.43
2022-10-18T23:18:41.353Z,7.10
2022-10-18T23:21:11.811Z,7.03
2022-10-18T23:23:40.491Z,5.27
2022-10-18T23:26:12.947Z,6.17
2022-10-18T23:28:42.064Z,5.50
2022-10-18T23:31:20.456Z,4.20
2022-10-18T23:33:48.943Z,4.20
2022-10-18T23:36:15.641Z,2.80
2022-10-18T23:38:42.307Z,6.80
2022-10-18T23:41:11.633Z,2.90
2022-10-18T23:43:38.749Z,3.77
2022-10-18T23:46:05.458Z,5.33
2022-10-18T23:48:32.108Z,5.47
2022-10-18T23:50:58.477Z,6.13
2022-10-18T23:53:24.878Z,6.27
2022-10-18T23:56:00.798Z,5.30
2022-10-18T23:58:30.045Z,3.97
